createdAt,value
2022-12-03T00:01:05.927Z,1401.5
2022-12-03T00:02:49.500Z,1397.8
2022-12-03T00:04:33.252Z,1396.4
2022-12-03T00:06:16.910Z,1393.4
2022-12-03T00:08:00.681Z,1390.3
2022-12-03T00:09:44.403Z,1390.7
2022-12-03T00:11:28.097Z,1386.8
2022-12-03T00:13:11.720Z,1383.1
2022-12-03T00:14:55.415Z,1393.9
2022-12-03T00:16:39.141Z,1392.4
2022-12-03T00:18:22.958Z,1392.9
2022-12-03T00:20:06.561Z,1393.6
2022-12-03T00:21:50.224Z,1395.7
2022-12-03T00:23:34.022Z,1394.6
2022-12-03T00:25:17.640Z,1391.5
2022-12-03T00:27:01.333Z,1391.4
2022-12-03T00:28:45.043Z,1393.4
2022-12-03T00:30:28.743Z,1395.8
2022-12-03T00:32:12.444Z,1393.9
2022-12-03T00:33:56.145Z,1394.5
2022-12-03T00:35:39.845Z,1391.5
2022-12-03T00:37:23.565Z,1386.2
2022-12-03T00:39:07.258Z,1387.4
2022-12-03T00:40:50.956Z,1395.5
2022-12-03T00:42:34.656Z,1388.7
2022-12-03T00:44:18.362Z,1382.2
2022-12-03T00:46:02.099Z,1386.4
2022-12-03T00:47:45.767Z,1389.6
2022-12-03T00:49:29.484Z,1389.2
2022-12-03T00:51:13.174Z,1384.7
2022-12-03T00:52:56.884Z,1383.1
2022-12-03T00:54:40.629Z,1380.2
2022-12-03T00:56:24.359Z,1389
2022-12-03T00:58:07.987Z,1391.2
2022-12-03T00:59:51.688Z,1387
2022-12-03T01:01:35.394Z,1386.5
2022-12-03T01:03:19.089Z,1387
2022-12-03T01:05:02.801Z,1388
2022-12-03T01:06:46.502Z,1389.7
2022-12-03T01:08:30.212Z,1391.8
2022-12-03T01:10:13.903Z,1389.7
2022-12-03T01:11:57.626Z,1387.7
2022-12-03T01:13:41.306Z,1386.1
2022-12-03T01:15:25.012Z,1391
2022-12-03T01:17:08.751Z,1392.7
2022-12-03T01:18:52.418Z,1391.2
2022-12-03T01:20:36.127Z,1384.2
2022-12-03T01:22:19.918Z,1384.7
2022-12-03T01:24:03.520Z,1383.6
2022-12-03T01:25:47.340Z,1383.4
2022-12-03T01:27:30.980Z,1384.2
2022-12-03T01:29:14.659Z,1383.2
2022-12-03T01:30:58.329Z,1380.2
2022-12-03T01:32:42.037Z,1385.9
2022-12-03T01:34:25.848Z,1387.3
2022-12-03T01:36:09.437Z,1395
2022-12-03T01:37:53.289Z,1387.8
2022-12-03T01:39:36.842Z,1382.7
2022-12-03T01:41:20.546Z,1378.3
2022-12-03T01:43:04.297Z,1376.5
2022-12-03T01:44:47.972Z,1374.6
2022-12-03T01:46:31.664Z,1375.5
2022-12-03T01:48:15.362Z,1375.4
2022-12-03T01:49:59.073Z,1379.8
2022-12-03T01:51:42.765Z,1379.8
2022-12-03T01:53:26.461Z,1379.9
2022-12-03T01:55:10.170Z,1374.5
2022-12-03T01:56:53.912Z,1373.7
2022-12-03T02:00:21.274Z,1379.9
2022-12-03T02:02:04.999Z,1379.7
2022-12-03T02:03:48.676Z,1379.7
2022-12-03T02:05:32.400Z,1375.6
2022-12-03T02:08:59.908Z,1384
2022-12-03T02:10:43.507Z,1384.4
2022-12-03T02:12:27.207Z,1382
2022-12-03T02:14:10.919Z,1381.9
2022-12-03T02:15:54.601Z,1382.6
2022-12-03T02:17:38.297Z,1386
2022-12-03T02:19:22.002Z,1388.6
2022-12-03T02:21:05.775Z,1389.4
2022-12-03T02:22:49.419Z,1394.7
2022-12-03T02:24:33.113Z,1396.5
2022-12-03T02:26:16.826Z,1398.1
2022-12-03T02:28:00.535Z,1406.5
2022-12-03T02:29:44.219Z,1405.2
2022-12-03T02:31:27.934Z,1396.1
2022-12-03T02:33:11.622Z,1398
2022-12-03T02:34:55.322Z,1397.7
2022-12-03T02:36:39.030Z,1398.1
2022-12-03T02:38:22.805Z,1395.6
2022-12-03T02:40:06.429Z,1393.4
2022-12-03T02:41:50.131Z,1397.1
2022-12-03T02:43:33.870Z,1396.8
2022-12-03T02:45:17.632Z,1397.8
2022-12-03T02:47:01.247Z,1397.3
2022-12-03T02:48:44.963Z,1396.6
2022-12-03T02:50:28.647Z,1396.4
2022-12-03T02:52:12.356Z,1395.6
2022-12-03T02:53:56.074Z,1391.7
2022-12-03T02:55:39.823Z,1394.6
2022-12-03T02:57:23.535Z,1398.2
2022-12-03T02:59:07.163Z,1398.4
2022-12-03T03:00:50.880Z,1400.5
2022-12-03T03:02:34.564Z,1403.6
2022-12-03T03:04:18.318Z,1399.5
2022-12-03T03:06:01.974Z,1400.5
2022-12-03T03:07:45.670Z,1402.9
2022-12-03T03:09:29.379Z,1403.3
2022-12-03T03:11:13.082Z,1404.2
2022-12-03T03:12:56.784Z,1403.7
2022-12-03T03:14:40.483Z,1408.1
2022-12-03T03:16:24.285Z,1405.6
2022-12-03T03:18:07.893Z,1397.8
2022-12-03T03:19:51.588Z,1395.4
2022-12-03T03:21:35.309Z,1395.4
2022-12-03T03:23:19.095Z,1393.6
2022-12-03T03:25:02.701Z,1392.5
2022-12-03T03:26:46.402Z,1393.6
2022-12-03T03:28:30.160Z,1393.9
2022-12-03T03:30:13.811Z,1398.8
2022-12-03T03:31:57.504Z,1401.7
2022-12-03T03:33:41.213Z,1400.9
2022-12-03T03:35:24.905Z,1391.9
2022-12-03T03:37:08.616Z,1395.1
2022-12-03T03:40:36.024Z,1400.4
2022-12-03T03:42:19.762Z,1402.9
2022-12-03T03:44:03.478Z,1401.9
2022-12-03T03:45:47.170Z,1395.3
2022-12-03T03:49:14.554Z,1388
2022-12-03T03:50:58.255Z,1384.5
2022-12-03T03:52:41.940Z,1381.9
2022-12-03T03:54:25.639Z,1380.3
2022-12-03T03:56:09.340Z,1379.5
2022-12-03T03:57:53.116Z,1377.5
2022-12-03T03:59:36.751Z,1369.4
2022-12-03T04:01:20.459Z,1370.1
2022-12-03T04:03:04.149Z,1370.3
2022-12-03T04:04:47.848Z,1369
2022-12-03T04:06:31.557Z,1368.2
2022-12-03T04:08:15.254Z,1365.9
2022-12-03T04:09:58.982Z,1362.2
2022-12-03T04:11:42.669Z,1360.9
2022-12-03T04:13:26.374Z,1359.1
2022-12-03T04:15:10.083Z,1358.4
2022-12-03T04:16:53.775Z,1361.8
2022-12-03T04:18:37.481Z,1362.9
2022-12-03T04:20:21.190Z,1364.4
2022-12-03T04:22:04.881Z,1361
2022-12-03T04:23:48.628Z,1357.4
2022-12-03T04:25:32.299Z,1355
2022-12-03T04:27:16.002Z,1355.6
2022-12-03T04:28:59.695Z,1350
2022-12-03T04:30:43.462Z,1349.2
2022-12-03T04:32:27.101Z,1344.1
2022-12-03T04:34:10.838Z,1339.4
2022-12-03T04:35:54.533Z,1340.2
2022-12-03T04:37:38.207Z,1341.7
2022-12-03T04:39:21.929Z,1342.6
2022-12-03T04:41:05.674Z,1339.6
2022-12-03T04:42:49.332Z,1337.8
2022-12-03T04:44:33.018Z,1338.6
2022-12-03T04:46:16.740Z,1339.4
2022-12-03T04:48:00.516Z,1335.8
2022-12-03T04:49:44.132Z,1332
2022-12-03T04:51:27.836Z,1329.1
2022-12-03T04:53:11.531Z,1323.4
2022-12-03T04:54:55.238Z,1324.5
2022-12-03T04:56:38.944Z,1328
2022-12-03T04:58:22.637Z,1330.4
2022-12-03T05:00:06.450Z,1333.8
2022-12-03T05:01:50.063Z,1334.1
2022-12-03T05:03:33.763Z,1335
2022-12-03T05:05:17.493Z,1326.2
2022-12-03T05:07:01.170Z,1318.1
2022-12-03T05:08:44.855Z,1316.7
2022-12-03T05:10:28.618Z,1313.6
2022-12-03T05:12:12.325Z,1305.5
2022-12-03T05:13:55.958Z,1309.4
2022-12-03T05:15:39.668Z,1311.8
2022-12-03T05:17:23.175Z,1311.5
2022-12-03T05:19:06.763Z,1307
2022-12-03T05:20:50.464Z,1302.5
2022-12-03T05:22:34.162Z,1298.1
2022-12-03T05:24:17.874Z,1295.1
2022-12-03T05:26:01.566Z,1292.9
2022-12-03T05:27:45.273Z,1293.2
2022-12-03T05:29:29.027Z,1291.9
2022-12-03T05:31:12.684Z,1288.1
2022-12-03T05:32:56.426Z,1289.2
2022-12-03T05:34:40.128Z,1290.9
2022-12-03T05:36:23.851Z,1288.2
2022-12-03T05:38:07.500Z,1281.6
2022-12-03T05:39:51.199Z,1280.4
2022-12-03T05:41:34.894Z,1287.9
2022-12-03T05:43:18.703Z,1285.4
2022-12-03T05:45:02.378Z,1281.1
2022-12-03T05:46:45.999Z,1281.7
2022-12-03T05:48:29.707Z,1278.8
2022-12-03T05:50:13.407Z,1279
2022-12-03T05:51:57.197Z,1287.5
2022-12-03T05:53:40.812Z,1291.1
2022-12-03T05:55:24.519Z,1288.2
2022-12-03T05:57:08.234Z,1282.6
2022-12-03T05:58:51.930Z,1274.6
2022-12-03T06:00:35.629Z,1272.4
2022-12-03T06:02:19.330Z,1270.2
2022-12-03T06:04:03.044Z,1270.8
2022-12-03T06:05:46.759Z,1270
2022-12-03T06:09:14.157Z,1256.8
2022-12-03T06:10:57.843Z,1256.5
2022-12-03T06:12:41.533Z,1263.7
2022-12-03T06:14:25.240Z,1262.5
2022-12-03T06:16:08.949Z,1257.3
2022-12-03T06:17:52.643Z,1255.7
2022-12-03T06:19:36.365Z,1258
2022-12-03T06:21:20.072Z,1263.6
2022-12-03T06:23:03.758Z,1263.2
2022-12-03T06:24:47.465Z,1257.6
2022-12-03T06:26:31.164Z,1256
2022-12-03T06:28:14.873Z,1253.7
2022-12-03T06:29:58.568Z,1252
2022-12-03T06:31:42.268Z,1249.2
2022-12-03T06:33:25.983Z,1247.3
2022-12-03T06:35:09.722Z,1245
2022-12-03T06:36:53.408Z,1242
2022-12-03T06:38:37.085Z,1242.4
2022-12-03T06:40:20.779Z,1239.5
2022-12-03T06:42:04.492Z,1237.4
2022-12-03T06:43:48.183Z,1235.8
2022-12-03T06:45:31.886Z,1241.1
2022-12-03T06:47:15.724Z,1240.6
2022-12-03T06:48:59.319Z,1236.5
2022-12-03T06:50:43.039Z,1236.5
2022-12-03T06:52:26.697Z,1244.7
2022-12-03T06:54:10.399Z,1244.9
2022-12-03T06:55:54.103Z,1241.8
2022-12-03T06:57:37.815Z,1238
2022-12-03T06:59:21.505Z,1237.2
2022-12-03T07:01:05.212Z,1235.2
2022-12-03T07:02:48.919Z,1233.8
2022-12-03T07:04:32.620Z,1231.1
2022-12-03T07:06:16.429Z,1228.2
2022-12-03T07:08:00.083Z,1226
2022-12-03T07:09:43.729Z,1225.1
2022-12-03T07:11:27.434Z,1222
2022-12-03T07:13:11.128Z,1219.4
2022-12-03T07:14:54.949Z,1222.5
2022-12-03T07:16:38.541Z,1222.4
2022-12-03T07:18:22.273Z,1221.7
2022-12-03T07:20:05.956Z,1220.6
2022-12-03T07:21:49.737Z,1219.3
2022-12-03T07:23:33.396Z,1218.9
2022-12-03T07:25:17.047Z,1220.3
2022-12-03T07:27:00.815Z,1221.4
2022-12-03T07:28:44.511Z,1225.6
2022-12-03T07:30:28.189Z,1227.5
2022-12-03T07:32:11.980Z,1220.6
2022-12-03T07:33:55.621Z,1216.5
2022-12-03T07:35:39.272Z,1224.2
2022-12-03T07:37:23.006Z,1223.4
2022-12-03T07:39:06.674Z,1226.2
2022-12-03T07:40:50.378Z,1220.2
2022-12-03T07:42:34.091Z,1217.9
2022-12-03T07:44:17.874Z,1217.3
2022-12-03T07:46:01.484Z,1214.5
2022-12-03T07:47:45.206Z,1209.3
2022-12-03T07:49:28.941Z,1205.3
2022-12-03T07:51:12.584Z,1205.4
2022-12-03T07:52:56.287Z,1204
2022-12-03T07:54:39.989Z,1208
2022-12-03T07:56:23.804Z,1211.5
2022-12-03T07:58:07.472Z,1211.3
2022-12-03T07:59:51.132Z,1214.9
2022-12-03T08:01:34.807Z,1212.4
2022-12-03T08:03:18.671Z,1211.8
2022-12-03T08:05:02.297Z,1210
2022-12-03T08:06:46.017Z,1210.3
2022-12-03T08:08:29.762Z,1209.1
2022-12-03T08:10:13.326Z,1203.5
2022-12-03T08:11:57.206Z,1192.3
2022-12-03T08:13:40.833Z,1197.9
2022-12-03T08:15:24.575Z,1194.4
2022-12-03T08:17:08.188Z,1198.1
2022-12-03T08:18:51.840Z,1200.3
2022-12-03T08:20:35.537Z,1200.8
2022-12-03T08:22:19.281Z,1200
2022-12-03T08:24:03.037Z,1197.6
2022-12-03T08:25:46.651Z,1192.8
2022-12-03T08:27:30.408Z,1190.1
2022-12-03T08:29:14.050Z,1190.5
2022-12-03T08:30:57.742Z,1188.6
2022-12-03T08:32:41.460Z,1190
2022-12-03T08:34:25.167Z,1190.5
2022-12-03T08:36:08.857Z,1188.4
2022-12-03T08:37:52.559Z,1185.6
2022-12-03T08:39:36.272Z,1188.1
2022-12-03T08:41:19.980Z,1184.9
2022-12-03T08:43:03.746Z,1185.1
2022-12-03T08:44:47.363Z,1184.6
2022-12-03T08:46:31.079Z,1185.9
2022-12-03T08:48:14.773Z,1185.8
2022-12-03T08:49:58.477Z,1183.9
2022-12-03T08:51:42.176Z,1183.3
2022-12-03T08:53:25.896Z,1182.1
2022-12-03T08:55:09.634Z,1179.2
2022-12-03T08:56:53.290Z,1177
2022-12-03T08:58:37.000Z,1176.5
2022-12-03T09:00:20.784Z,1177.7
2022-12-03T09:02:04.420Z,1174.3
2022-12-03T09:03:48.120Z,1174.6
2022-12-03T09:05:31.801Z,1172.6
2022-12-03T09:07:15.502Z,1171.8
2022-12-03T09:08:59.208Z,1168.5
2022-12-03T09:10:42.905Z,1173.8
2022-12-03T09:12:26.605Z,1172.7
2022-12-03T09:14:10.334Z,1171.8
2022-12-03T09:15:54.013Z,1171.3
2022-12-03T09:17:37.796Z,1171.5
2022-12-03T09:19:21.413Z,1171
2022-12-03T09:21:05.120Z,1167.1
2022-12-03T09:22:48.831Z,1171.6
2022-12-03T09:24:32.528Z,1174.9
2022-12-03T09:26:16.231Z,1173.9
2022-12-03T09:28:00.066Z,1175.4
2022-12-03T09:29:43.632Z,1177.7
2022-12-03T09:31:27.409Z,1177.3
2022-12-03T09:33:11.117Z,1179
2022-12-03T09:34:54.750Z,1222.8
2022-12-03T09:36:38.485Z,1237.7
2022-12-03T09:38:22.141Z,1256.4
2022-12-03T09:40:05.908Z,1267.7
2022-12-03T09:41:49.560Z,1285.3
2022-12-03T09:43:33.316Z,1305
2022-12-03T09:45:17.097Z,1313.2
2022-12-03T09:47:00.777Z,1316.4
2022-12-03T09:48:44.365Z,1318.5
2022-12-03T09:50:28.122Z,1337.2
2022-12-03T09:52:11.778Z,1362.9
2022-12-03T09:53:55.484Z,1391.5
2022-12-03T09:55:39.183Z,1395.5
2022-12-03T09:57:22.912Z,1391.4
2022-12-03T09:59:06.581Z,1385.2
2022-12-03T10:00:50.301Z,1381.6
2022-12-03T10:02:33.985Z,1382.3
2022-12-03T10:04:17.683Z,1376.8
2022-12-03T10:06:01.398Z,1378.3
2022-12-03T10:07:45.097Z,1377.3
2022-12-03T10:09:28.805Z,1379.9
2022-12-03T10:11:12.518Z,1376.1
2022-12-03T10:12:56.208Z,1371
2022-12-03T10:14:39.909Z,1364
2022-12-03T10:16:23.610Z,1359.6
2022-12-03T10:18:07.317Z,1367.3
2022-12-03T10:19:51.020Z,1387.4
2022-12-03T10:21:34.720Z,1393.6
2022-12-03T10:23:18.436Z,1394
2022-12-03T10:25:02.120Z,1388.7
2022-12-03T10:26:45.825Z,1368.4
2022-12-03T10:28:29.541Z,1355
2022-12-03T10:30:13.233Z,1347.4
2022-12-03T10:31:56.940Z,1343
2022-12-03T10:33:40.635Z,1328.6
2022-12-03T10:35:24.344Z,1293.5
2022-12-03T10:37:08.048Z,1293.4
2022-12-03T10:38:51.742Z,1310.5
2022-12-03T10:40:35.459Z,1306.1
2022-12-03T10:42:19.157Z,1302.2
2022-12-03T10:44:02.859Z,1307.9
2022-12-03T10:45:46.557Z,1303.1
2022-12-03T10:47:30.283Z,1298.3
2022-12-03T10:49:13.963Z,1298.9
2022-12-03T10:50:57.662Z,1297.2
2022-12-03T10:52:41.360Z,1295.5
2022-12-03T10:54:25.066Z,1291.3
2022-12-03T10:56:08.772Z,1282
2022-12-03T10:57:52.474Z,1275.5
2022-12-03T10:59:36.183Z,1273.5
2022-12-03T11:01:19.884Z,1269.8
2022-12-03T11:03:03.687Z,1265.1
2022-12-03T11:04:47.279Z,1255.4
2022-12-03T11:06:30.982Z,1250.2
2022-12-03T11:08:14.697Z,1244.7
2022-12-03T11:09:58.399Z,1240.7
2022-12-03T11:11:42.091Z,1232.2
2022-12-03T11:13:25.799Z,1229.4
2022-12-03T11:15:09.504Z,1224.9
2022-12-03T11:16:53.195Z,1198.6
2022-12-03T11:18:36.903Z,1187.7
2022-12-03T11:20:20.616Z,1189.4
2022-12-03T11:22:04.364Z,1181.4
2022-12-03T11:23:48.030Z,1170.1
2022-12-03T11:25:31.713Z,1157.7
2022-12-03T11:27:15.412Z,1162.4
2022-12-03T11:28:59.129Z,1162.8
2022-12-03T11:30:42.821Z,1157.9
2022-12-03T11:34:10.238Z,1143.9
2022-12-03T11:35:53.922Z,1135.6
2022-12-03T11:37:37.640Z,1126.2
2022-12-03T11:39:21.336Z,1114.4
2022-12-03T11:41:05.051Z,1100
2022-12-03T11:42:48.741Z,1088.7
2022-12-03T11:44:32.441Z,1080.4
2022-12-03T11:46:16.162Z,1069.9
2022-12-03T11:47:59.857Z,1061.5
2022-12-03T11:49:43.585Z,1057.1
2022-12-03T11:51:27.386Z,1048
2022-12-03T11:53:10.959Z,1036.1
2022-12-03T11:54:54.689Z,1031.3
2022-12-03T11:56:38.368Z,1022.2
2022-12-03T11:58:22.066Z,1011.3
2022-12-03T12:00:05.778Z,1005.9
2022-12-03T12:01:49.472Z,999.3
2022-12-03T12:03:33.178Z,994.5
2022-12-03T12:05:16.879Z,1006.9
2022-12-03T12:07:00.582Z,1016.1
2022-12-03T12:08:44.279Z,1022
2022-12-03T12:10:27.991Z,1024.7
2022-12-03T12:12:11.694Z,1022
2022-12-03T12:13:55.386Z,1027.5
2022-12-03T12:15:39.089Z,1032.5
2022-12-03T12:17:22.795Z,1040
2022-12-03T12:19:06.500Z,1049.9
2022-12-03T12:20:50.198Z,1053.4
2022-12-03T12:22:33.900Z,1047.7
2022-12-03T12:24:17.604Z,1044.6
2022-12-03T12:26:01.315Z,1039.5
2022-12-03T12:27:45.011Z,1041.6
2022-12-03T12:29:28.716Z,1044.3
2022-12-03T12:31:12.436Z,1048.3
2022-12-03T12:32:56.117Z,1048.9
2022-12-03T12:34:39.828Z,1051.4
2022-12-03T12:36:23.518Z,1056.7
2022-12-03T12:38:07.275Z,1057.9
2022-12-03T12:39:50.930Z,1056.1
2022-12-03T12:41:34.685Z,1056.8
2022-12-03T12:43:18.334Z,1061.1
2022-12-03T12:45:02.047Z,1068.1
2022-12-03T12:46:45.739Z,1070.5
2022-12-03T12:48:29.444Z,1081.7
2022-12-03T12:50:13.141Z,1087.9
2022-12-03T12:51:56.843Z,1094.3
2022-12-03T12:53:40.552Z,1101.4
2022-12-03T12:55:24.246Z,1102.5
2022-12-03T12:57:07.953Z,1098.1
2022-12-03T12:58:51.656Z,1097.6
2022-12-03T13:00:35.375Z,1096.8
2022-12-03T13:02:19.165Z,1118.5
2022-12-03T13:04:02.823Z,1141.8
2022-12-03T13:05:46.515Z,1141.6
2022-12-03T13:07:30.177Z,1132.2
2022-12-03T13:09:13.868Z,1129
2022-12-03T13:10:57.573Z,1126.2
2022-12-03T13:12:41.314Z,1127.8
2022-12-03T13:14:25.071Z,1133.5
2022-12-03T13:16:08.681Z,1136.2
2022-12-03T13:19:36.082Z,1131.5
2022-12-03T13:21:19.794Z,1132.3
2022-12-03T13:23:03.492Z,1139.5
2022-12-03T13:24:47.192Z,1148.7
2022-12-03T13:26:30.998Z,1152.2
2022-12-03T13:28:14.783Z,1158
2022-12-03T13:29:58.301Z,1159.8
2022-12-03T13:31:42.033Z,1159
2022-12-03T13:33:25.701Z,1159.5
2022-12-03T13:35:09.405Z,1162.4
2022-12-03T13:36:53.253Z,1159.1
2022-12-03T13:38:36.968Z,1156.5
2022-12-03T13:40:20.523Z,1156
2022-12-03T13:42:04.327Z,1155.2
2022-12-03T13:43:48.104Z,1158.4
2022-12-03T13:45:31.801Z,1160.7
2022-12-03T13:47:15.326Z,1165.8
2022-12-03T13:48:59.057Z,1171.2
2022-12-03T13:50:42.882Z,1168.2
2022-12-03T13:52:26.492Z,1166.3
2022-12-03T13:54:10.291Z,1166.7
2022-12-03T13:55:54.010Z,1165.6
2022-12-03T13:57:37.755Z,1166.2
2022-12-03T13:59:21.420Z,1161.5
2022-12-03T14:01:04.948Z,1156.8
2022-12-03T14:02:48.835Z,1157.5
2022-12-03T14:04:32.614Z,1158.7
2022-12-03T14:06:16.074Z,1157.6
2022-12-03T14:07:59.943Z,1160
2022-12-03T14:09:43.593Z,1163.2
2022-12-03T14:11:27.332Z,1161.9
2022-12-03T14:13:11.025Z,1160.1
2022-12-03T14:14:54.789Z,1158.4
2022-12-03T14:16:38.470Z,1157
2022-12-03T14:18:22.174Z,1152.9
2022-12-03T14:20:05.811Z,1148.8
2022-12-03T14:21:49.529Z,1147.8
2022-12-03T14:23:33.174Z,1147.8
2022-12-03T14:25:16.787Z,1145.5
2022-12-03T14:27:00.558Z,1147.7
2022-12-03T14:28:44.212Z,1148.8
2022-12-03T14:30:27.891Z,1150.6
2022-12-03T14:32:11.596Z,1149.2
2022-12-03T14:33:55.355Z,1149
2022-12-03T14:35:39.058Z,1151.8
2022-12-03T14:37:22.697Z,1153.8
2022-12-03T14:39:06.499Z,1149
2022-12-03T14:40:50.105Z,1148.3
2022-12-03T14:42:33.798Z,1148.5
2022-12-03T14:46:01.221Z,1149.9
2022-12-03T14:47:44.915Z,1153
2022-12-03T14:49:28.636Z,1157.3
2022-12-03T14:51:12.325Z,1159.7
2022-12-03T14:52:56.133Z,1158.2
2022-12-03T14:54:39.741Z,1157.4
2022-12-03T14:56:23.430Z,1157.1
2022-12-03T14:58:07.128Z,1154.2
2022-12-03T14:59:50.976Z,1151.6
2022-12-03T15:01:34.531Z,1147.9
2022-12-03T15:03:18.243Z,1145
2022-12-03T15:05:01.951Z,1139.1
2022-12-03T15:06:45.689Z,1140
2022-12-03T15:08:29.347Z,1150.7
2022-12-03T15:10:13.119Z,1150.3
2022-12-03T15:11:56.872Z,1159.4
2022-12-03T15:13:40.454Z,1162.8
2022-12-03T15:15:24.203Z,1159.1
2022-12-03T15:17:07.853Z,1151.5
2022-12-03T15:18:51.691Z,1131.7
2022-12-03T15:20:35.557Z,1123.3
2022-12-03T15:22:19.121Z,1117.4
2022-12-03T15:24:02.812Z,1110.4
2022-12-03T15:25:46.528Z,1106.7
2022-12-03T15:27:30.208Z,1102.8
2022-12-03T15:29:13.912Z,1100.2
2022-12-03T15:30:57.640Z,1088.9
2022-12-03T15:32:41.351Z,1080.8
2022-12-03T15:34:25.022Z,1073.8
2022-12-03T15:36:08.806Z,1064
2022-12-03T15:37:52.486Z,1012.6
2022-12-03T15:39:36.153Z,996.2
2022-12-03T15:41:19.875Z,1012.6
2022-12-03T15:43:03.623Z,1040.2
2022-12-03T15:44:47.095Z,1041.9
2022-12-03T15:46:30.962Z,1045.6
2022-12-03T15:48:14.572Z,1051.3
2022-12-03T15:49:58.358Z,1052.5
2022-12-03T15:51:42.059Z,1051.4
2022-12-03T15:53:25.783Z,1048.4
2022-12-03T15:55:09.443Z,1048.7
2022-12-03T15:56:53.159Z,1050.8
2022-12-03T15:58:36.865Z,1048.1
2022-12-03T16:00:20.537Z,1051.9
2022-12-03T16:02:04.287Z,1051.6
2022-12-03T16:03:47.916Z,1050.8
2022-12-03T16:05:31.531Z,1054.4
2022-12-03T16:07:15.322Z,1050.7
2022-12-03T16:08:59.096Z,1050.5
2022-12-03T16:10:42.642Z,1051.5
2022-12-03T16:12:26.398Z,1049.4
2022-12-03T16:14:10.115Z,1038.1
2022-12-03T16:15:53.779Z,1017.9
2022-12-03T16:17:37.545Z,1001.2
2022-12-03T16:19:21.158Z,991.4
2022-12-03T16:21:05.034Z,990.6
2022-12-03T16:22:48.624Z,990.6
2022-12-03T16:24:32.253Z,987.2
2022-12-03T16:26:15.961Z,988.5
2022-12-03T16:27:59.696Z,987.8
2022-12-03T16:29:43.535Z,989.3
2022-12-03T16:31:27.194Z,989.2
2022-12-03T16:33:10.941Z,991.6
2022-12-03T16:34:54.474Z,990.9
2022-12-03T16:36:38.168Z,983.5
2022-12-03T16:38:21.964Z,982.9
2022-12-03T16:40:05.593Z,982.5
2022-12-03T16:41:49.279Z,976.7
2022-12-03T16:43:33.155Z,977.7
2022-12-03T16:45:16.773Z,976.9
2022-12-03T16:47:00.531Z,975.1
2022-12-03T16:48:44.178Z,972.6
2022-12-03T16:50:27.921Z,973
2022-12-03T16:52:11.548Z,969.9
2022-12-03T16:53:55.315Z,964.2
2022-12-03T16:55:38.996Z,965
2022-12-03T16:59:06.440Z,968
2022-12-03T17:00:50.108Z,974.1
2022-12-03T17:02:33.761Z,976.5
2022-12-03T17:04:17.416Z,980.2
2022-12-03T17:06:01.141Z,981.6
2022-12-03T17:07:44.860Z,980.6
2022-12-03T17:09:28.672Z,981
2022-12-03T17:11:12.247Z,1011.2
2022-12-03T17:12:55.950Z,1059.2
2022-12-03T17:14:39.855Z,1055.6
2022-12-03T17:16:23.489Z,1036.6
2022-12-03T17:18:07.206Z,961.7
2022-12-03T17:19:50.917Z,982.3
2022-12-03T17:21:34.595Z,993.8
2022-12-03T17:23:18.289Z,998.8
2022-12-03T17:25:01.853Z,1004.1
2022-12-03T17:26:45.693Z,1008
2022-12-03T17:28:29.455Z,1007.9
2022-12-03T17:30:13.218Z,1010.2
2022-12-03T17:31:56.798Z,1020
2022-12-03T17:33:40.487Z,1027.9
2022-12-03T17:35:24.224Z,1035.7
2022-12-03T17:37:07.912Z,1064.1
2022-12-03T17:38:51.590Z,1092
2022-12-03T17:40:35.343Z,1094.4
2022-12-03T17:42:19.062Z,1083
2022-12-03T17:44:02.574Z,1080.8
2022-12-03T17:45:46.271Z,1077.3
2022-12-03T17:47:29.980Z,1089.8
2022-12-03T17:49:13.809Z,1113
2022-12-03T17:50:57.533Z,1119.9
2022-12-03T17:52:41.243Z,1127.5
2022-12-03T17:54:24.788Z,1127.3
2022-12-03T17:56:08.662Z,1133.8
2022-12-03T17:57:52.192Z,1125.9
2022-12-03T17:59:36.051Z,1098.9
2022-12-03T18:01:19.805Z,1080.7
2022-12-03T18:03:03.412Z,1076.9
2022-12-03T18:04:46.992Z,1076.9
2022-12-03T18:06:30.698Z,1074.6
2022-12-03T18:08:14.450Z,1076.2
2022-12-03T18:09:58.101Z,1082
2022-12-03T18:11:41.972Z,1085.5
2022-12-03T18:13:25.603Z,1096.4
2022-12-03T18:15:09.256Z,1115.5
2022-12-03T18:16:52.963Z,1122.2
2022-12-03T18:18:36.617Z,1140.5
2022-12-03T18:20:20.438Z,1153
2022-12-03T18:22:04.064Z,1164.5
2022-12-03T18:23:47.788Z,1172
2022-12-03T18:25:31.591Z,1187
2022-12-03T18:27:15.192Z,1264.5
2022-12-03T18:28:58.945Z,1285.9
2022-12-03T18:30:42.551Z,1275
2022-12-03T18:32:26.242Z,1264.8
2022-12-03T18:34:10.021Z,1250.7
2022-12-03T18:35:53.707Z,1227.8
2022-12-03T18:37:37.384Z,1220.6
2022-12-03T18:39:21.065Z,1214.3
2022-12-03T18:41:04.872Z,1212.6
2022-12-03T18:42:48.629Z,1203
2022-12-03T18:44:32.281Z,1197.7
2022-12-03T18:46:15.924Z,1194.8
2022-12-03T18:47:59.724Z,1188.5
2022-12-03T18:49:43.360Z,1185.4
2022-12-03T18:51:27.046Z,1181.7
2022-12-03T18:53:10.820Z,1178.7
2022-12-03T18:54:54.408Z,1169
2022-12-03T18:56:38.194Z,1162.7
2022-12-03T18:58:21.906Z,1154
2022-12-03T19:00:05.629Z,1142.3
2022-12-03T19:01:49.235Z,1128.9
2022-12-03T19:03:32.969Z,1123.2
2022-12-03T19:05:16.848Z,1119.5
2022-12-03T19:07:00.537Z,1120.6
2022-12-03T19:08:44.162Z,1118.1
2022-12-03T19:10:27.785Z,1110.7
2022-12-03T19:12:11.506Z,1104.4
2022-12-03T19:13:55.108Z,1098.6
2022-12-03T19:15:38.912Z,1097.3
2022-12-03T19:17:22.632Z,1088.9
2022-12-03T19:19:06.305Z,1077.8
2022-12-03T19:20:50.017Z,1071.4
2022-12-03T19:22:33.759Z,1073.5
2022-12-03T19:24:17.396Z,1078.3
2022-12-03T19:26:01.085Z,1078.7
2022-12-03T19:27:44.848Z,1075.8
2022-12-03T19:29:28.526Z,1072.8
2022-12-03T19:31:12.137Z,1069.6
2022-12-03T19:32:55.972Z,1068.1
2022-12-03T19:34:39.609Z,1067.2
2022-12-03T19:36:23.312Z,1060.8
2022-12-03T19:38:07.014Z,1056.8
2022-12-03T19:39:50.655Z,1051.8
2022-12-03T19:41:34.464Z,1049.9
2022-12-03T19:43:18.050Z,1043.5
2022-12-03T19:45:01.900Z,1040.9
2022-12-03T19:46:45.557Z,1043.2
2022-12-03T19:48:29.342Z,1045.4
2022-12-03T19:50:12.897Z,1043.7
2022-12-03T19:51:56.749Z,1040.1
2022-12-03T19:53:40.271Z,1038.1
2022-12-03T19:55:24.043Z,1036.5
2022-12-03T19:57:07.765Z,1033.9
2022-12-03T19:58:51.456Z,1031.4
2022-12-03T20:00:35.257Z,1025.6
2022-12-03T20:02:18.884Z,1021.2
2022-12-03T20:04:02.531Z,1020.9
2022-12-03T20:05:46.269Z,1015.7
2022-12-03T20:07:29.976Z,1016.9
2022-12-03T20:09:13.666Z,1018.1
2022-12-03T20:10:57.437Z,1013.4
2022-12-03T20:12:40.997Z,1012.1
2022-12-03T20:14:24.855Z,1011.2
2022-12-03T20:16:08.406Z,1007.3
2022-12-03T20:17:52.178Z,998.5
2022-12-03T20:19:35.848Z,998.2
2022-12-03T20:21:19.559Z,1002.7
2022-12-03T20:23:03.283Z,1000.5
2022-12-03T20:24:47.037Z,999.4
2022-12-03T20:26:30.720Z,1000.1
2022-12-03T20:28:14.328Z,1003.6
2022-12-03T20:29:58.118Z,1000.4
2022-12-03T20:31:41.785Z,996.7
2022-12-03T20:33:25.514Z,997
2022-12-03T20:35:09.295Z,994.4
2022-12-03T20:36:52.848Z,993.4
2022-12-03T20:38:36.552Z,991.8
2022-12-03T20:40:20.368Z,990.1
2022-12-03T20:42:04.051Z,990.9
2022-12-03T20:43:47.684Z,990.1
2022-12-03T20:45:31.347Z,984.3
2022-12-03T20:47:15.087Z,983.6
2022-12-03T20:48:58.824Z,980
2022-12-03T20:50:42.451Z,978.5
2022-12-03T20:52:26.271Z,980.3
2022-12-03T20:54:09.910Z,974.8
2022-12-03T20:55:53.564Z,972.8
2022-12-03T20:57:37.258Z,971.2
2022-12-03T20:59:21.110Z,971.2
2022-12-03T21:01:04.667Z,972.8
2022-12-03T21:02:48.403Z,966.3
2022-12-03T21:04:32.158Z,961
2022-12-03T21:07:59.477Z,963.8
2022-12-03T21:09:43.266Z,963.3
2022-12-03T21:11:26.905Z,965.7
2022-12-03T21:13:10.638Z,968.9
2022-12-03T21:14:54.314Z,968.9
2022-12-03T21:16:37.989Z,968.8
2022-12-03T21:18:21.686Z,965.2
2022-12-03T21:20:05.393Z,962.3
2022-12-03T21:21:49.091Z,955.7
2022-12-03T21:23:32.856Z,953.5
2022-12-03T21:25:16.545Z,953.8
2022-12-03T21:27:00.255Z,954
2022-12-03T21:28:43.972Z,952.2
2022-12-03T21:30:27.597Z,951.7
2022-12-03T21:32:11.323Z,954
2022-12-03T21:33:55.156Z,951.9
2022-12-03T21:35:38.824Z,951.7
2022-12-03T21:37:22.471Z,942.9
2022-12-03T21:39:06.121Z,941.1
2022-12-03T21:40:49.830Z,943.9
2022-12-03T21:42:33.530Z,946.3
2022-12-03T21:44:17.260Z,949.4
2022-12-03T21:46:01.027Z,948.2
2022-12-03T21:47:44.726Z,946.6
2022-12-03T21:49:28.415Z,943.6
2022-12-03T21:51:12.030Z,939.9
2022-12-03T21:52:55.771Z,939.5
2022-12-03T21:54:39.441Z,939.3
2022-12-03T21:56:23.210Z,941.2
2022-12-03T21:58:06.847Z,941.5
2022-12-03T21:59:50.628Z,942
2022-12-03T22:01:34.291Z,942
2022-12-03T22:03:17.952Z,937.3
2022-12-03T22:05:01.690Z,938.4